createdAt,value
2019-03-17T00:01:15.943Z,2.55
2019-03-17T00:03:42.623Z,2.53
2019-03-17T00:06:09.254Z,2.51
2019-03-17T00:08:39.031Z,2.65
2019-03-17T00:11:05.679Z,2.73
2019-03-17T00:13:32.245Z,2.73
2019-03-17T00:15:58.870Z,2.80
2019-03-17T00:18:25.553Z,2.69
2019-03-17T00:20:52.259Z,2.86
2019-03-17T00:23:18.982Z,2.98
2019-03-17T00:25:45.673Z,3.00
2019-03-17T00:28:12.523Z,3.01
2019-03-17T00:30:39.430Z,2.91
2019-03-17T00:33:06.040Z,2.99
2019-03-17T00:35:32.695Z,3.08
2019-03-17T00:37:59.275Z,3.22
2019-03-17T00:40:25.878Z,3.31
2019-03-17T00:42:53.713Z,3.33
2019-03-17T00:45:20.871Z,3.26
2019-03-17T00:47:47.494Z,3.07
2019-03-17T00:50:14.328Z,3.07
2019-03-17T00:52:40.900Z,3.32
2019-03-17T00:55:07.887Z,3.29
2019-03-17T00:57:34.763Z,3.16
2019-03-17T01:00:02.478Z,3.18
2019-03-17T01:02:29.293Z,3.17
2019-03-17T01:04:56.650Z,3.09
2019-03-17T01:07:23.556Z,3.09
2019-03-17T01:09:50.295Z,2.98
2019-03-17T01:12:17.317Z,3.07
2019-03-17T01:14:43.892Z,3.04
2019-03-17T01:17:10.564Z,2.98
2019-03-17T01:19:37.506Z,3.19
2019-03-17T01:22:04.244Z,3.36
2019-03-17T01:24:30.839Z,3.47
2019-03-17T01:27:00.312Z,3.52
2019-03-17T01:29:29.093Z,3.54
2019-03-17T01:31:56.272Z,3.58
2019-03-17T01:34:23.583Z,3.48
2019-03-17T01:36:50.877Z,3.45
2019-03-17T01:39:19.381Z,3.47
2019-03-17T01:41:47.030Z,3.53
2019-03-17T01:44:13.782Z,3.45
2019-03-17T01:46:40.378Z,3.60
2019-03-17T01:49:06.926Z,3.57
2019-03-17T01:51:33.549Z,3.54
2019-03-17T01:54:00.146Z,3.58
2019-03-17T01:56:26.766Z,3.64
2019-03-17T01:58:53.583Z,3.77
2019-03-17T02:01:20.494Z,3.70
2019-03-17T02:03:47.243Z,3.82
2019-03-17T02:06:13.915Z,3.67
2019-03-17T02:08:40.613Z,3.69
2019-03-17T02:11:07.273Z,3.78
2019-03-17T02:13:33.824Z,3.83
2019-03-17T02:16:00.505Z,3.82
2019-03-17T02:18:27.070Z,3.76
2019-03-17T02:20:53.691Z,3.87
2019-03-17T02:23:21.712Z,3.88
2019-03-17T02:25:48.361Z,3.87
2019-03-17T02:28:15.009Z,3.87
2019-03-17T02:30:41.621Z,3.96
2019-03-17T02:33:08.236Z,3.91
2019-03-17T02:35:39.432Z,4.11
2019-03-17T02:38:03.317Z,4.17
2019-03-17T02:40:29.992Z,4.30
2019-03-17T02:42:56.670Z,4.38
2019-03-17T02:45:23.495Z,4.50
2019-03-17T02:47:50.060Z,4.50
2019-03-17T02:50:16.662Z,4.60
2019-03-17T02:52:43.276Z,4.71
2019-03-17T02:55:10.282Z,4.90
2019-03-17T02:57:39.924Z,4.85
2019-03-17T03:00:09.591Z,4.83
2019-03-17T03:02:36.398Z,4.80
2019-03-17T03:05:05.984Z,4.93
2019-03-17T03:07:32.887Z,4.79
2019-03-17T03:09:59.460Z,4.65
2019-03-17T03:12:26.199Z,4.75
2019-03-17T03:14:52.749Z,4.70
2019-03-17T03:17:19.360Z,4.79
2019-03-17T03:19:45.899Z,4.98
2019-03-17T03:22:12.459Z,5.08
2019-03-17T03:24:39.166Z,5.09
2019-03-17T03:27:05.898Z,5.10
2019-03-17T03:29:32.644Z,5.18
2019-03-17T03:31:59.235Z,5.29
2019-03-17T03:34:25.939Z,5.21
2019-03-17T03:36:52.688Z,5.32
2019-03-17T03:39:19.391Z,5.32
2019-03-17T03:41:45.927Z,5.34
2019-03-17T03:44:12.490Z,5.31
2019-03-17T03:46:40.351Z,5.49
2019-03-17T03:49:07.144Z,5.42
2019-03-17T03:51:33.854Z,5.42
2019-03-17T03:54:00.678Z,5.53
2019-03-17T03:56:27.349Z,5.53
2019-03-17T03:58:54.163Z,5.59
2019-03-17T04:01:20.842Z,5.49
2019-03-17T04:03:47.421Z,5.51
2019-03-17T04:06:25.517Z,5.52
2019-03-17T04:08:42.507Z,5.58
2019-03-17T04:11:09.140Z,5.67
2019-03-17T04:13:35.711Z,5.81
2019-03-17T04:16:02.403Z,5.79
2019-03-17T04:18:29.142Z,5.77
2019-03-17T04:20:55.798Z,5.85
2019-03-17T04:23:22.709Z,5.83
2019-03-17T04:25:49.438Z,5.82
2019-03-17T04:28:16.198Z,5.90
2019-03-17T04:30:42.781Z,5.96
2019-03-17T04:33:09.512Z,6.07
2019-03-17T04:35:36.242Z,6.00
2019-03-17T04:38:03.008Z,6.08
2019-03-17T04:40:29.893Z,6.12
2019-03-17T04:42:56.500Z,6.02
2019-03-17T04:45:23.263Z,6.07
2019-03-17T04:47:49.814Z,6.25
2019-03-17T04:50:16.421Z,6.27
2019-03-17T04:52:43.142Z,6.28
2019-03-17T04:55:09.826Z,6.23
2019-03-17T04:57:36.493Z,6.18
2019-03-17T05:00:09.601Z,6.26
2019-03-17T05:02:36.323Z,6.33
2019-03-17T05:05:06.027Z,6.34
2019-03-17T05:07:33.793Z,6.32
2019-03-17T05:10:00.518Z,6.36
2019-03-17T05:12:27.083Z,6.31
2019-03-17T05:14:53.649Z,6.35
2019-03-17T05:17:20.364Z,6.38
2019-03-17T05:19:46.979Z,6.45
2019-03-17T05:22:13.736Z,6.48
2019-03-17T05:24:40.301Z,6.40
2019-03-17T05:27:06.873Z,6.42
2019-03-17T05:29:33.707Z,6.51
2019-03-17T05:32:00.402Z,6.46
2019-03-17T05:34:27.067Z,6.28
2019-03-17T05:37:05.501Z,6.38
2019-03-17T05:39:22.318Z,6.47
2019-03-17T05:41:48.905Z,6.52
2019-03-17T05:44:15.479Z,6.66
2019-03-17T05:46:42.094Z,6.72
2019-03-17T05:49:08.760Z,6.82
2019-03-17T05:51:35.351Z,6.93
2019-03-17T05:54:02.051Z,6.97
2019-03-17T05:56:28.591Z,6.85
2019-03-17T05:58:55.293Z,6.96
2019-03-17T06:01:22.084Z,6.98
2019-03-17T06:03:48.703Z,7.11
2019-03-17T06:06:15.291Z,7.15
2019-03-17T06:08:41.944Z,7.13
2019-03-17T06:11:08.583Z,7.23
2019-03-17T06:13:35.396Z,7.28
2019-03-17T06:16:01.993Z,7.35
2019-03-17T06:18:28.571Z,7.23
2019-03-17T06:20:55.631Z,7.34
2019-03-17T06:23:22.281Z,7.39
2019-03-17T06:25:48.954Z,7.45
2019-03-17T06:28:15.520Z,7.43
2019-03-17T06:30:42.178Z,7.39
2019-03-17T06:33:08.809Z,7.50
2019-03-17T06:35:35.479Z,7.43
2019-03-17T06:38:05.009Z,7.57
2019-03-17T06:40:31.647Z,7.71
2019-03-17T06:42:58.354Z,7.81
2019-03-17T06:45:24.951Z,7.75
2019-03-17T06:47:51.586Z,7.82
2019-03-17T06:50:18.150Z,7.80
2019-03-17T06:52:44.896Z,7.93
2019-03-17T06:55:16.209Z,8.01
2019-03-17T06:57:42.792Z,8.17
2019-03-17T07:00:12.393Z,8.15
2019-03-17T07:02:39.104Z,8.28
2019-03-17T07:05:08.272Z,8.40
2019-03-17T07:07:43.884Z,8.50
2019-03-17T07:10:07.794Z,8.60
2019-03-17T07:12:34.494Z,8.64
2019-03-17T07:15:01.483Z,8.78
2019-03-17T07:17:28.036Z,8.52
2019-03-17T07:19:54.702Z,8.78
2019-03-17T07:22:21.444Z,8.97
2019-03-17T07:24:48.147Z,8.89
2019-03-17T07:27:14.950Z,8.80
2019-03-17T07:29:41.586Z,8.94
2019-03-17T07:32:08.301Z,9.16
2019-03-17T07:34:35.020Z,9.13
2019-03-17T07:37:01.568Z,9.35
2019-03-17T07:39:28.159Z,9.32
2019-03-17T07:41:54.747Z,9.22
2019-03-17T07:44:21.892Z,9.29
2019-03-17T07:46:48.531Z,9.37
2019-03-17T07:49:15.412Z,9.63
2019-03-17T07:51:42.007Z,9.71
2019-03-17T07:54:08.577Z,9.76
2019-03-17T07:56:35.210Z,9.65
2019-03-17T07:59:01.889Z,9.64
2019-03-17T08:01:28.512Z,9.62
2019-03-17T08:03:55.147Z,9.65
2019-03-17T08:06:21.884Z,9.65
2019-03-17T08:08:49.678Z,9.76
2019-03-17T08:11:16.387Z,9.79
2019-03-17T08:13:43.095Z,9.89
2019-03-17T08:16:09.659Z,9.93
2019-03-17T08:18:36.342Z,9.86
2019-03-17T08:21:04.113Z,9.89
2019-03-17T08:23:30.684Z,9.93
2019-03-17T08:25:57.247Z,9.97
2019-03-17T08:28:23.865Z,10.16
2019-03-17T08:30:53.516Z,10.30
2019-03-17T08:33:21.089Z,10.32
2019-03-17T08:35:47.891Z,10.34
2019-03-17T08:38:21.747Z,10.29
2019-03-17T08:40:43.177Z,10.27
2019-03-17T08:43:09.864Z,10.34
2019-03-17T08:45:36.438Z,10.52
2019-03-17T08:48:08.113Z,10.58
2019-03-17T08:50:34.683Z,10.74
2019-03-17T08:53:01.471Z,10.81
2019-03-17T08:55:28.033Z,10.80
2019-03-17T08:57:54.606Z,10.74
2019-03-17T09:00:21.330Z,10.87
2019-03-17T09:02:48.050Z,11.03
2019-03-17T09:05:14.947Z,11.21
2019-03-17T09:07:41.558Z,11.50
2019-03-17T09:10:13.041Z,11.68
2019-03-17T09:12:39.862Z,11.82
2019-03-17T09:15:06.990Z,11.77
2019-03-17T09:17:33.954Z,11.93
2019-03-17T09:20:00.681Z,11.95
2019-03-17T09:22:27.255Z,12.11
2019-03-17T09:24:53.954Z,12.20
2019-03-17T09:27:20.712Z,12.18
2019-03-17T09:29:47.327Z,12.30
2019-03-17T09:32:14.022Z,12.15
2019-03-17T09:34:40.575Z,12.25
2019-03-17T09:37:07.161Z,12.17
2019-03-17T09:39:33.911Z,12.36
2019-03-17T09:42:00.653Z,12.36
2019-03-17T09:44:27.221Z,12.47
2019-03-17T09:46:54.013Z,12.17
2019-03-17T09:49:20.750Z,12.37
2019-03-17T09:51:47.496Z,12.54
2019-03-17T09:54:14.367Z,12.48
2019-03-17T09:56:41.246Z,12.46
2019-03-17T09:59:08.032Z,12.52
2019-03-17T10:01:34.705Z,12.54
2019-03-17T10:04:02.602Z,12.56
2019-03-17T10:06:29.287Z,12.51
2019-03-17T10:09:00.123Z,12.52
2019-03-17T10:11:24.643Z,12.59
2019-03-17T10:13:51.363Z,12.70
2019-03-17T10:16:18.019Z,12.85
2019-03-17T10:18:44.576Z,12.82
2019-03-17T10:21:14.184Z,12.75
2019-03-17T10:23:40.937Z,12.17
2019-03-17T10:26:10.859Z,12.39
2019-03-17T10:28:37.469Z,12.37
2019-03-17T10:31:04.380Z,12.46
2019-03-17T10:33:32.285Z,12.46
2019-03-17T10:35:59.197Z,12.78
2019-03-17T10:38:25.761Z,12.99
2019-03-17T10:40:52.464Z,12.97
2019-03-17T10:43:19.162Z,13.33
2019-03-17T10:45:45.975Z,13.75
2019-03-17T10:48:12.534Z,13.82
2019-03-17T10:50:49.387Z,13.68
2019-03-17T10:53:08.579Z,13.57
2019-03-17T10:55:38.187Z,13.66
2019-03-17T10:58:05.040Z,13.75
2019-03-17T11:00:32.030Z,13.84
2019-03-17T11:02:58.696Z,14.38
2019-03-17T11:05:25.291Z,14.54
2019-03-17T11:07:51.847Z,14.65
2019-03-17T11:10:18.535Z,14.62
2019-03-17T11:12:45.305Z,14.59
2019-03-17T11:15:15.042Z,14.25
2019-03-17T11:17:41.671Z,14.21
2019-03-17T11:20:11.677Z,14.36
2019-03-17T11:22:38.655Z,14.45
2019-03-17T11:25:10.230Z,14.03
2019-03-17T11:27:37.104Z,14.28
2019-03-17T11:30:09.292Z,14.20
2019-03-17T11:32:35.892Z,14.56
2019-03-17T11:35:04.812Z,14.72
2019-03-17T11:37:32.809Z,14.80
2019-03-17T11:39:59.419Z,14.55
2019-03-17T11:42:25.989Z,14.69
2019-03-17T11:44:52.818Z,15.16
2019-03-17T11:47:19.998Z,15.25
2019-03-17T11:49:46.738Z,15.49
2019-03-17T11:52:14.351Z,15.58
2019-03-17T11:55:37.418Z,15.88
2019-03-17T11:58:04.202Z,15.80
2019-03-17T12:00:31.350Z,15.87
2019-03-17T12:02:57.986Z,15.74
2019-03-17T12:05:24.650Z,15.82
2019-03-17T12:07:51.348Z,15.79
2019-03-17T12:10:22.651Z,15.92
2019-03-17T12:12:49.322Z,15.29
2019-03-17T12:15:20.570Z,15.67
2019-03-17T12:17:47.507Z,15.69
2019-03-17T12:20:14.963Z,15.81
2019-03-17T12:22:41.839Z,15.73
2019-03-17T12:25:12.132Z,15.87
2019-03-17T12:27:39.072Z,15.84
2019-03-17T12:30:11.383Z,15.71
2019-03-17T12:32:38.041Z,15.62
2019-03-17T12:35:04.952Z,15.69
2019-03-17T12:37:31.584Z,15.76
2019-03-17T12:40:02.743Z,15.66
2019-03-17T12:42:26.776Z,15.86
2019-03-17T12:45:49.955Z,15.98
2019-03-17T12:48:16.635Z,16.01
2019-03-17T12:50:43.387Z,15.98
2019-03-17T12:53:10.177Z,15.85
2019-03-17T12:55:36.829Z,15.70
2019-03-17T12:58:03.460Z,15.86
2019-03-17T13:00:30.057Z,15.77
2019-03-17T13:02:57.068Z,15.78
2019-03-17T13:05:23.645Z,16.12
2019-03-17T13:07:50.342Z,16.13
2019-03-17T13:10:20.899Z,16.17
2019-03-17T13:12:47.606Z,16.21
2019-03-17T13:15:14.596Z,16.19
2019-03-17T13:17:41.388Z,16.27
2019-03-17T13:20:12.558Z,16.27
2019-03-17T13:22:40.345Z,16.19
2019-03-17T13:25:10.177Z,16.22
2019-03-17T13:27:38.662Z,16.40
2019-03-17T13:30:10.284Z,16.50
2019-03-17T13:32:36.922Z,16.45
2019-03-17T13:35:06.440Z,16.57
2019-03-17T13:37:33.009Z,16.58
2019-03-17T13:39:59.694Z,16.51
2019-03-17T13:42:26.315Z,16.50
2019-03-17T13:44:53.055Z,16.45
2019-03-17T13:47:19.710Z,16.45
2019-03-17T13:49:46.365Z,16.51
2019-03-17T13:52:13.426Z,16.60
2019-03-17T13:54:40.073Z,16.66
2019-03-17T13:57:06.745Z,16.72
2019-03-17T13:59:33.379Z,16.69
2019-03-17T14:02:00.103Z,16.84
2019-03-17T14:04:26.732Z,16.84
2019-03-17T14:06:53.724Z,16.85
2019-03-17T14:09:20.503Z,16.94
2019-03-17T14:11:47.112Z,17.02
2019-03-17T14:14:13.705Z,17.05
2019-03-17T14:16:40.374Z,16.98
2019-03-17T14:19:07.326Z,17.05
2019-03-17T14:21:33.973Z,17.06
2019-03-17T14:24:00.623Z,17.17
2019-03-17T14:26:27.332Z,16.91
2019-03-17T14:28:53.988Z,17.20
2019-03-17T14:32:18.292Z,17.29
2019-03-17T14:34:44.881Z,17.34
2019-03-17T14:37:11.608Z,17.68
2019-03-17T14:39:38.153Z,17.74
2019-03-17T14:42:04.850Z,17.71
2019-03-17T14:44:31.587Z,17.61
2019-03-17T14:46:58.150Z,17.72
2019-03-17T14:49:24.815Z,17.77
2019-03-17T14:51:51.569Z,17.75
2019-03-17T14:54:18.175Z,17.55
2019-03-17T14:56:46.371Z,17.47
2019-03-17T14:59:13.075Z,17.54
2019-03-17T15:01:39.723Z,17.62
2019-03-17T15:04:06.444Z,17.57
2019-03-17T15:06:33.134Z,17.45
2019-03-17T15:08:59.842Z,17.40
2019-03-17T15:11:27.557Z,17.40
2019-03-17T15:13:54.577Z,17.23
2019-03-17T15:16:22.822Z,17.30
2019-03-17T15:18:49.480Z,17.27
2019-03-17T15:21:16.036Z,17.10
2019-03-17T15:23:44.203Z,17.14
2019-03-17T15:26:11.905Z,17.04
2019-03-17T15:28:38.482Z,16.95
2019-03-17T15:31:11.346Z,16.98
2019-03-17T15:33:34.143Z,16.86
2019-03-17T15:36:01.927Z,16.86
2019-03-17T15:38:28.517Z,16.68
2019-03-17T15:40:55.435Z,16.64
2019-03-17T15:43:23.762Z,16.69
2019-03-17T15:45:53.912Z,16.62
2019-03-17T15:48:22.407Z,16.54
2019-03-17T15:50:51.369Z,16.55
2019-03-17T15:53:23.792Z,16.43
2019-03-17T15:55:52.760Z,16.40
2019-03-17T15:58:24.009Z,16.35
2019-03-17T16:00:54.172Z,16.21
2019-03-17T16:03:32.000Z,16.07
2019-03-17T16:06:06.803Z,15.80
2019-03-17T16:08:38.986Z,15.59
2019-03-17T16:11:08.117Z,15.49
2019-03-17T16:13:37.046Z,15.24
2019-03-17T16:16:04.633Z,15.04
2019-03-17T16:18:31.904Z,14.96
2019-03-17T16:20:58.798Z,14.82
2019-03-17T16:23:26.658Z,14.52
2019-03-17T16:25:54.589Z,14.55
2019-03-17T16:28:23.381Z,14.46
2019-03-17T16:30:54.344Z,14.25
2019-03-17T16:33:25.186Z,14.02
2019-03-17T16:35:54.970Z,13.70
2019-03-17T16:38:28.510Z,13.54
2019-03-17T16:40:56.042Z,13.45
2019-03-17T16:43:22.803Z,13.32
2019-03-17T16:45:49.624Z,13.12
2019-03-17T16:48:16.197Z,12.72
2019-03-17T16:50:42.800Z,12.69
2019-03-17T16:53:09.437Z,12.66
2019-03-17T16:55:36.128Z,12.60
2019-03-17T16:58:03.300Z,12.49
2019-03-17T17:00:30.590Z,12.43
2019-03-17T17:02:57.283Z,12.43
2019-03-17T17:05:25.005Z,12.35
2019-03-17T17:07:51.727Z,12.29
2019-03-17T17:11:14.518Z,12.09
2019-03-17T17:13:41.119Z,12.02
2019-03-17T17:16:07.762Z,11.77
2019-03-17T17:18:34.586Z,11.70
2019-03-17T17:21:01.285Z,11.55
2019-03-17T17:23:30.972Z,11.55
2019-03-17T17:25:58.070Z,11.51
2019-03-17T17:28:24.974Z,11.39
2019-03-17T17:30:51.557Z,11.16
2019-03-17T17:33:18.171Z,11.03
2019-03-17T17:36:41.729Z,11.00
2019-03-17T17:39:08.668Z,10.94
2019-03-17T17:42:31.529Z,10.84
2019-03-17T17:44:58.201Z,10.77
2019-03-17T17:47:24.965Z,10.75
2019-03-17T17:49:51.645Z,10.61
2019-03-17T17:52:18.357Z,10.67
2019-03-17T17:54:45.038Z,10.73
2019-03-17T17:57:11.761Z,10.64
2019-03-17T17:59:41.349Z,10.32
2019-03-17T18:02:08.175Z,10.10
2019-03-17T18:04:36.867Z,10.20
2019-03-17T18:07:07.128Z,10.15
2019-03-17T18:09:33.907Z,10.18
2019-03-17T18:12:00.795Z,10.27
2019-03-17T18:14:28.655Z,10.33
2019-03-17T18:16:55.507Z,10.31
2019-03-17T18:19:23.173Z,10.31
2019-03-17T18:21:49.944Z,10.33
2019-03-17T18:24:18.000Z,10.06
2019-03-17T18:26:45.434Z,9.98
2019-03-17T18:29:12.374Z,9.92
2019-03-17T18:31:39.726Z,9.77
2019-03-17T18:34:06.435Z,9.60
2019-03-17T18:36:33.265Z,9.64
2019-03-17T18:39:01.377Z,9.49
2019-03-17T18:41:32.591Z,9.48
2019-03-17T18:43:59.213Z,9.63
2019-03-17T18:46:25.850Z,9.66
2019-03-17T18:48:53.066Z,9.46
2019-03-17T18:51:19.824Z,9.48
2019-03-17T18:53:47.103Z,9.39
2019-03-17T18:56:13.885Z,9.33
2019-03-17T18:58:42.181Z,9.42
2019-03-17T19:01:08.876Z,9.27
2019-03-17T19:03:36.692Z,9.35
2019-03-17T19:06:04.187Z,9.44
2019-03-17T19:08:30.831Z,9.21
2019-03-17T19:10:57.677Z,9.20
2019-03-17T19:13:24.617Z,9.27
2019-03-17T19:15:52.437Z,9.35
2019-03-17T19:18:19.518Z,9.33
2019-03-17T19:20:47.231Z,9.43
2019-03-17T19:23:13.817Z,9.52
2019-03-17T19:25:40.905Z,9.36
2019-03-17T19:28:07.698Z,9.19
2019-03-17T19:30:34.843Z,9.23
2019-03-17T19:33:01.898Z,9.09
2019-03-17T19:35:28.721Z,9.07
2019-03-17T19:37:56.471Z,9.20
2019-03-17T19:40:24.437Z,9.03
2019-03-17T19:42:58.550Z,8.83
2019-03-17T19:45:21.389Z,9.07
2019-03-17T19:47:49.931Z,9.02
2019-03-17T19:50:20.920Z,8.92
2019-03-17T19:52:47.811Z,8.92
2019-03-17T19:55:14.945Z,8.85
2019-03-17T19:57:42.195Z,8.81
2019-03-17T20:01:05.054Z,8.70
2019-03-17T20:03:32.180Z,8.87
2019-03-17T20:06:02.441Z,8.79
2019-03-17T20:08:28.229Z,8.61
2019-03-17T20:10:54.962Z,8.48
2019-03-17T20:13:22.390Z,8.60
2019-03-17T20:15:50.336Z,8.70
2019-03-17T20:18:17.022Z,8.69
2019-03-17T20:20:44.086Z,8.69
2019-03-17T20:23:10.849Z,8.46
2019-03-17T20:25:37.432Z,8.50
2019-03-17T20:28:04.269Z,8.64
2019-03-17T20:30:31.265Z,8.62
2019-03-17T20:32:58.025Z,8.63
2019-03-17T20:35:24.693Z,8.56
2019-03-17T20:37:51.268Z,8.35
2019-03-17T20:40:18.394Z,8.17
2019-03-17T20:42:45.271Z,8.10
2019-03-17T20:45:14.276Z,8.06
2019-03-17T20:47:41.850Z,8.16
2019-03-17T20:50:12.206Z,8.08
2019-03-17T20:52:39.321Z,8.21
2019-03-17T20:55:09.466Z,8.27
2019-03-17T20:57:36.249Z,8.11
2019-03-17T21:00:08.545Z,8.05
2019-03-17T21:02:35.146Z,7.97
2019-03-17T21:05:02.849Z,8.11
2019-03-17T21:07:31.493Z,8.17
2019-03-17T21:09:58.166Z,7.95
2019-03-17T21:12:24.774Z,7.78
2019-03-17T21:14:51.354Z,7.86
2019-03-17T21:17:17.931Z,7.76
2019-03-17T21:19:45.487Z,7.86
2019-03-17T21:22:12.170Z,7.84
2019-03-17T21:24:38.948Z,7.54
2019-03-17T21:27:05.643Z,7.43
2019-03-17T21:29:32.357Z,7.41
2019-03-17T21:31:59.529Z,7.50
2019-03-17T21:34:26.222Z,7.49
2019-03-17T21:36:52.827Z,7.55
2019-03-17T21:39:19.386Z,7.47
2019-03-17T21:41:45.956Z,7.38
2019-03-17T21:44:12.588Z,7.29
2019-03-17T21:46:39.171Z,7.18
2019-03-17T21:49:05.847Z,7.16
2019-03-17T21:51:32.446Z,7.21
2019-03-17T21:53:59.125Z,7.31
2019-03-17T21:56:25.855Z,7.30
2019-03-17T21:58:53.855Z,7.33
2019-03-17T22:01:20.473Z,7.20
2019-03-17T22:04:43.336Z,7.23
2019-03-17T22:07:09.894Z,7.36
2019-03-17T22:09:36.589Z,7.32
2019-03-17T22:12:03.393Z,7.39
2019-03-17T22:14:30.074Z,7.48
2019-03-17T22:16:58.663Z,7.67
2019-03-17T22:19:25.334Z,7.76
2019-03-17T22:21:51.965Z,7.70
2019-03-17T22:24:18.804Z,7.70
2019-03-17T22:26:45.381Z,7.73
2019-03-17T22:29:12.115Z,7.65
2019-03-17T22:31:38.888Z,7.76
2019-03-17T22:34:08.116Z,7.91
2019-03-17T22:36:34.282Z,8.15
2019-03-17T22:39:00.851Z,8.81
2019-03-17T22:41:27.490Z,9.33
2019-03-17T22:43:54.363Z,9.68
2019-03-17T22:46:21.204Z,9.92
2019-03-17T22:48:47.904Z,10.09
2019-03-17T22:51:14.476Z,10.21
2019-03-17T22:53:42.241Z,10.32
2019-03-17T22:56:08.871Z,10.29
2019-03-17T22:58:35.510Z,9.93
2019-03-17T23:01:02.619Z,9.99
2019-03-17T23:03:29.598Z,10.15
2019-03-17T23:05:56.695Z,10.01
2019-03-17T23:08:23.826Z,9.97
2019-03-17T23:10:50.939Z,9.86
2019-03-17T23:13:18.223Z,9.73
2019-03-17T23:15:45.442Z,9.62
2019-03-17T23:18:12.586Z,9.60
2019-03-17T23:20:40.708Z,9.61
2019-03-17T23:23:07.956Z,9.43
2019-03-17T23:25:35.242Z,9.51
2019-03-17T23:28:02.520Z,9.44
2019-03-17T23:30:29.631Z,9.38
2019-03-17T23:32:56.805Z,9.44
2019-03-17T23:35:23.811Z,9.48
2019-03-17T23:37:50.949Z,9.22
2019-03-17T23:40:18.000Z,9.30
2019-03-17T23:42:45.199Z,9.45
2019-03-17T23:45:12.732Z,9.39
2019-03-17T23:47:39.867Z,9.28
2019-03-17T23:50:10.610Z,9.39
2019-03-17T23:52:37.613Z,9.29
2019-03-17T23:55:08.507Z,9.37
2019-03-17T23:57:36.718Z,9.24
